Big Clifty, Kentucky
Current Conditions -  °F | °C
As of 9:58 AM on Wednesday 22 Oct 2014 (Local Time) from KFTK Reporting Station
Clear Clear  
Wind Chill: 50°   Ceiling: Unl
Heat Index: 50°   Visibility: 10mi
Dew Point: 38°   Wind: 8mph
Humidity: 64%   Direction: 360°N
Pressure: 30.29"   Gusts: NA
Location:  37.55°N, 86.15°W
Report Text: KFTK 221458Z AUTO 36007KT 10SM CLR 10/03 A3029 RMK AO2 SLP261 T01000034 52014
Loading
Personal Weather Stations






























Interactive Weather Map
Tropical Storm Tracking
New forecast layout! Learn more

10-Day Weather Forecast

Advertisements
Track Severe Weather on mobile